Messwerte Twentynine Palms

Temperatur

Temperatur
°C
1575511200 18.00 18.00 10
1575514800 19.00 19.00 10
1575518400 20.00 20.00 10
1575522000 21.00 21.00 9
1575525600 22.00 22.00 9
1575529200 23.00 23.00 9
1575532800 0.00 0.00 9
1575536400 1.00 1.00
1575540000 2.00 2.00 9
1575543600 3.00 3.00 9
1575547200 4.00 4.00
1575550800 5.00 5.00 9
1575554400 6.00 6.00 9
1575558000 7.00 7.00 8
1575561600 8.00 8.00 9
1575565200 9.00 9.00 9
1575568800 10.00 10.00 10
1575572400 11.00 11.00 10
1575576000 12.00 12.00 11
1575579600 13.00 13.00 12
1575583200 14.00 14.00 13
1575586800 15.00 15.00 13
1575590400 16.00 16.00 13
1575594000 17.00 17.00 12

Aktuellste Messwerte

Wettercharakter
Wetter: klar
Temperatur
9 °C
Feuchtigkeit
93 %
Wind
10 km/hWindrichtung: Südwest
Luftdruck
1024 hPa
Messzeit: 5. Dezember 2019, 19.00Datenquelle: METAR

Weitere Messstationen in der Nähe

Messstation Temperatur Entfernung
Palm Springs 16 °C 59 km
Palm Springs 12 °C 72 km
Daggett 11 °C 86 km
Riverside 14 °C 109 km
Riverside 14 °C 124 km
Ontario 16 °C 135 km
Chino, Chino Airport 14 °C 140 km

Wind

Windrichtung Böen Mittelwind
° km/h km/h
1575511200 18.00 17.00 - 18.00 200° 5
1575514800 19.00 18.00 - 19.00 170° 5
1575518400 20.00 19.00 - 20.00 10° 0
1575522000 21.00 20.00 - 21.00 150° 5
1575525600 22.00 21.00 - 22.00 140° 5
1575529200 23.00 22.00 - 23.00 330° 5
1575532800 0.00 23.00 - 0.00 0
1575536400 1.00 0.00 - 1.00
1575540000 2.00 1.00 - 2.00 310° 5
1575543600 3.00 2.00 - 3.00 240° 5
1575547200 4.00 3.00 - 4.00
1575550800 5.00 4.00 - 5.00 330° 10
1575554400 6.00 5.00 - 6.00 300° 10
1575558000 7.00 6.00 - 7.00 300° 10
1575561600 8.00 7.00 - 8.00 270° 10
1575565200 9.00 8.00 - 9.00 280° 15
1575568800 10.00 9.00 - 10.00 280° 10
1575572400 11.00 10.00 - 11.00 290° 10
1575576000 12.00 11.00 - 12.00 280° 10
1575579600 13.00 12.00 - 13.00 220° 5
1575583200 14.00 13.00 - 14.00 290° 5
1575586800 15.00 14.00 - 15.00 0
1575590400 16.00 15.00 - 16.00 0
1575594000 17.00 16.00 - 17.00 0

Ihre Wetterstation

Fehlt Ihre Wetterstation auf unserem Portal?

Schreiben Sie an network@meteonews.ch

Klima

Wann ist es am wärmsten? Wann regnet es am wenigsten? Unsere Klimadaten geben Auskunft.